Stapleton, Georgia
Current Conditions -  °F | °C
As of 10:35 PM on Sunday 21 Dec 2014 (Local Time) from KHQU Reporting Station
Overcast Overcast  
Wind Chill: 46°   Ceiling: 3000
Heat Index: 49°   Visibility: 4mi
Dew Point: 49°   Wind: 7mph
Humidity: 100%   Direction: 60°ENE
Pressure: 30.16"   Gusts: NA
Location:  33.22°N, 82.47°W
Report Text: KHQU 220335Z AUTO 06006KT 4SM SCT011 SCT022 OVC030 09/09 A3016 RMK AO1 T00930093
Loading
Personal Weather Stations






























Interactive Weather Map New forecast layout! Learn more

10-Day Weather Forecast

Advertisements
Track Severe Weather on mobile